sensor_id;sensor_type;location;lat;lon;timestamp;P1;durP1;ratioP1;P2;durP2;ratioP2
57241;SDS011;43095;53.302;5.786;2023-08-07T00:00:01;16.48;;;3.30;;
57241;SDS011;43095;53.302;5.786;2023-08-07T00:02:30;18.23;;;3.25;;
57241;SDS011;43095;53.302;5.786;2023-08-07T00:04:57;20.52;;;2.90;;
57241;SDS011;43095;53.302;5.786;2023-08-07T00:07:24;16.88;;;3.78;;
57241;SDS011;43095;53.302;5.786;2023-08-07T00:09:52;17.50;;;2.72;;
57241;SDS011;43095;53.302;5.786;2023-08-07T00:12:21;16.55;;;3.08;;
57241;SDS011;43095;53.302;5.786;2023-08-07T00:14:49;16.40;;;3.40;;
57241;SDS011;43095;53.302;5.786;2023-08-07T00:17:17;14.68;;;3.22;;
57241;SDS011;43095;53.302;5.786;2023-08-07T00:19:44;15.10;;;2.92;;
57241;SDS011;43095;53.302;5.786;2023-08-07T00:22:10;10.07;;;2.35;;
57241;SDS011;43095;53.302;5.786;2023-08-07T00:24:38;11.38;;;2.40;;
57241;SDS011;43095;53.302;5.786;2023-08-07T00:27:05;8.40;;;2.67;;
57241;SDS011;43095;53.302;5.786;2023-08-07T00:29:33;18.13;;;3.05;;
57241;SDS011;43095;53.302;5.786;2023-08-07T00:31:59;18.45;;;2.92;;
57241;SDS011;43095;53.302;5.786;2023-08-07T00:34:26;20.60;;;3.40;;
57241;SDS011;43095;53.302;5.786;2023-08-07T00:36:53;15.15;;;2.70;;
57241;SDS011;43095;53.302;5.786;2023-08-07T00:39:20;15.35;;;2.90;;
57241;SDS011;43095;53.302;5.786;2023-08-07T00:41:47;17.45;;;3.90;;
57241;SDS011;43095;53.302;5.786;2023-08-07T00:44:14;18.23;;;3.10;;
57241;SDS011;43095;53.302;5.786;2023-08-07T00:46:41;10.65;;;3.10;;
57241;SDS011;43095;53.302;5.786;2023-08-07T00:49:09;13.05;;;3.03;;
57241;SDS011;43095;53.302;5.786;2023-08-07T00:51:38;12.93;;;2.72;;
57241;SDS011;43095;53.302;5.786;2023-08-07T00:54:06;14.35;;;3.67;;
57241;SDS011;43095;53.302;5.786;2023-08-07T00:56:34;15.35;;;3.17;;
57241;SDS011;43095;53.302;5.786;2023-08-07T00:59:01;13.05;;;2.78;;
57241;SDS011;43095;53.302;5.786;2023-08-07T01:01:29;17.48;;;2.53;;
57241;SDS011;43095;53.302;5.786;2023-08-07T01:04:02;12.65;;;2.88;;
57241;SDS011;43095;53.302;5.786;2023-08-07T01:06:29;15.80;;;3.63;;
57241;SDS011;43095;53.302;5.786;2023-08-07T01:08:56;10.15;;;2.70;;
57241;SDS011;43095;53.302;5.786;2023-08-07T01:11:29;11.27;;;2.35;;
57241;SDS011;43095;53.302;5.786;2023-08-07T01:16:35;12.20;;;3.30;;
57241;SDS011;43095;53.302;5.786;2023-08-07T01:19:02;13.23;;;2.58;;
57241;SDS011;43095;53.302;5.786;2023-08-07T01:21:32;10.68;;;2.05;;
57241;SDS011;43095;53.302;5.786;2023-08-07T01:23:59;12.95;;;2.33;;
57241;SDS011;43095;53.302;5.786;2023-08-07T01:26:25;13.32;;;2.60;;
57241;SDS011;43095;53.302;5.786;2023-08-07T01:28:58;12.05;;;2.45;;
57241;SDS011;43095;53.302;5.786;2023-08-07T01:31:33;13.10;;;2.80;;
57241;SDS011;43095;53.302;5.786;2023-08-07T01:34:02;16.33;;;3.42;;
57241;SDS011;43095;53.302;5.786;2023-08-07T01:36:31;12.05;;;3.20;;
57241;SDS011;43095;53.302;5.786;2023-08-07T01:39:01;10.93;;;2.47;;
57241;SDS011;43095;53.302;5.786;2023-08-07T01:41:30;8.82;;;2.65;;
57241;SDS011;43095;53.302;5.786;2023-08-07T01:43:57;16.48;;;3.00;;
57241;SDS011;43095;53.302;5.786;2023-08-07T01:46:24;9.98;;;2.58;;
57241;SDS011;43095;53.302;5.786;2023-08-07T01:48:52;12.88;;;2.75;;
57241;SDS011;43095;53.302;5.786;2023-08-07T01:51:20;13.07;;;3.05;;
57241;SDS011;43095;53.302;5.786;2023-08-07T01:53:48;12.50;;;3.13;;
57241;SDS011;43095;53.302;5.786;2023-08-07T01:56:15;13.98;;;3.30;;
57241;SDS011;43095;53.302;5.786;2023-08-07T01:58:42;9.13;;;3.13;;
57241;SDS011;43095;53.302;5.786;2023-08-07T02:01:09;17.70;;;4.35;;
57241;SDS011;43095;53.302;5.786;2023-08-07T02:03:39;6.13;;;1.98;;
57241;SDS011;43095;53.302;5.786;2023-08-07T02:06:06;9.02;;;2.72;;
57241;SDS011;43095;53.302;5.786;2023-08-07T02:08:33;12.98;;;3.22;;
57241;SDS011;43095;53.302;5.786;2023-08-07T02:11:05;11.45;;;2.35;;
57241;SDS011;43095;53.302;5.786;2023-08-07T02:13:32;6.20;;;2.53;;
57241;SDS011;43095;53.302;5.786;2023-08-07T02:15:59;9.70;;;2.85;;
57241;SDS011;43095;53.302;5.786;2023-08-07T02:18:26;11.80;;;2.28;;
57241;SDS011;43095;53.302;5.786;2023-08-07T02:20:53;5.40;;;2.33;;
57241;SDS011;43095;53.302;5.786;2023-08-07T02:23:20;8.13;;;2.50;;
57241;SDS011;43095;53.302;5.786;2023-08-07T02:25:48;11.60;;;2.97;;
57241;SDS011;43095;53.302;5.786;2023-08-07T02:28:20;11.35;;;2.78;;
57241;SDS011;43095;53.302;5.786;2023-08-07T02:31:03;26.08;;;5.13;;
57241;SDS011;43095;53.302;5.786;2023-08-07T02:33:33;33.42;;;6.25;;
57241;SDS011;43095;53.302;5.786;2023-08-07T02:36:08;27.75;;;5.25;;
57241;SDS011;43095;53.302;5.786;2023-08-07T02:38:39;28.95;;;5.60;;
57241;SDS011;43095;53.302;5.786;2023-08-07T02:41:08;31.10;;;6.03;;
57241;SDS011;43095;53.302;5.786;2023-08-07T02:43:39;20.95;;;4.47;;
57241;SDS011;43095;53.302;5.786;2023-08-07T02:46:23;22.00;;;4.88;;
57241;SDS011;43095;53.302;5.786;2023-08-07T02:48:50;18.77;;;4.60;;
57241;SDS011;43095;53.302;5.786;2023-08-07T02:51:21;18.08;;;4.85;;
57241;SDS011;43095;53.302;5.786;2023-08-07T02:53:52;22.20;;;3.88;;
57241;SDS011;43095;53.302;5.786;2023-08-07T02:56:19;16.75;;;4.30;;
57241;SDS011;43095;53.302;5.786;2023-08-07T02:58:49;23.05;;;4.45;;
57241;SDS011;43095;53.302;5.786;2023-08-07T03:01:20;18.90;;;4.25;;
57241;SDS011;43095;53.302;5.786;2023-08-07T03:03:47;15.95;;;3.90;;
57241;SDS011;43095;53.302;5.786;2023-08-07T03:06:14;23.50;;;4.07;;
57241;SDS011;43095;53.302;5.786;2023-08-07T03:08:41;17.40;;;3.47;;
57241;SDS011;43095;53.302;5.786;2023-08-07T03:11:09;24.92;;;4.43;;
57241;SDS011;43095;53.302;5.786;2023-08-07T03:13:36;18.17;;;3.88;;
57241;SDS011;43095;53.302;5.786;2023-08-07T03:16:03;16.10;;;4.43;;
57241;SDS011;43095;53.302;5.786;2023-08-07T03:18:31;13.30;;;4.10;;
57241;SDS011;43095;53.302;5.786;2023-08-07T03:20:58;22.15;;;5.28;;
57241;SDS011;43095;53.302;5.786;2023-08-07T03:23:26;18.10;;;3.90;;
57241;SDS011;43095;53.302;5.786;2023-08-07T03:26:09;11.10;;;2.92;;
57241;SDS011;43095;53.302;5.786;2023-08-07T03:28:46;15.15;;;3.22;;
57241;SDS011;43095;53.302;5.786;2023-08-07T03:31:14;17.50;;;3.90;;
57241;SDS011;43095;53.302;5.786;2023-08-07T03:33:41;13.15;;;3.45;;
57241;SDS011;43095;53.302;5.786;2023-08-07T03:36:10;22.38;;;4.97;;
57241;SDS011;43095;53.302;5.786;2023-08-07T03:38:38;23.98;;;4.40;;
57241;SDS011;43095;53.302;5.786;2023-08-07T03:41:05;18.52;;;3.97;;
57241;SDS011;43095;53.302;5.786;2023-08-07T03:43:32;14.10;;;3.75;;
57241;SDS011;43095;53.302;5.786;2023-08-07T03:45:59;21.35;;;4.47;;
57241;SDS011;43095;53.302;5.786;2023-08-07T03:48:30;18.98;;;4.53;;
57241;SDS011;43095;53.302;5.786;2023-08-07T03:51:03;28.70;;;4.70;;
57241;SDS011;43095;53.302;5.786;2023-08-07T03:53:34;27.15;;;5.18;;
57241;SDS011;43095;53.302;5.786;2023-08-07T03:56:06;29.67;;;5.60;;
57241;SDS011;43095;53.302;5.786;2023-08-07T03:58:34;19.35;;;5.70;;
57241;SDS011;43095;53.302;5.786;2023-08-07T04:01:02;28.63;;;5.47;;
57241;SDS011;43095;53.302;5.786;2023-08-07T04:03:30;23.63;;;5.63;;
57241;SDS011;43095;53.302;5.786;2023-08-07T04:05:58;26.85;;;5.70;;
57241;SDS011;43095;53.302;5.786;2023-08-07T04:08:27;21.50;;;5.10;;
57241;SDS011;43095;53.302;5.786;2023-08-07T04:10:57;23.75;;;5.22;;
57241;SDS011;43095;53.302;5.786;2023-08-07T04:13:34;23.52;;;4.13;;
57241;SDS011;43095;53.302;5.786;2023-08-07T04:16:01;22.65;;;5.38;;
57241;SDS011;43095;53.302;5.786;2023-08-07T04:18:31;21.83;;;4.78;;
57241;SDS011;43095;53.302;5.786;2023-08-07T04:21:00;19.02;;;4.85;;
57241;SDS011;43095;53.302;5.786;2023-08-07T04:23:30;23.10;;;4.10;;
57241;SDS011;43095;53.302;5.786;2023-08-07T04:25:58;23.45;;;6.18;;
57241;SDS011;43095;53.302;5.786;2023-08-07T04:28:28;13.15;;;3.85;;
57241;SDS011;43095;53.302;5.786;2023-08-07T04:30:55;14.32;;;3.78;;
57241;SDS011;43095;53.302;5.786;2023-08-07T04:33:24;15.77;;;3.75;;
57241;SDS011;43095;53.302;5.786;2023-08-07T04:35:54;21.13;;;5.10;;
57241;SDS011;43095;53.302;5.786;2023-08-07T04:38:35;17.17;;;4.43;;
57241;SDS011;43095;53.302;5.786;2023-08-07T04:41:10;28.77;;;5.65;;
57241;SDS011;43095;53.302;5.786;2023-08-07T04:43:38;26.77;;;4.90;;
57241;SDS011;43095;53.302;5.786;2023-08-07T04:46:06;18.98;;;5.28;;
57241;SDS011;43095;53.302;5.786;2023-08-07T04:48:34;24.20;;;4.95;;
57241;SDS011;43095;53.302;5.786;2023-08-07T04:51:04;26.92;;;5.28;;
57241;SDS011;43095;53.302;5.786;2023-08-07T04:53:30;22.02;;;4.20;;
57241;SDS011;43095;53.302;5.786;2023-08-07T04:56:01;24.35;;;4.78;;
57241;SDS011;43095;53.302;5.786;2023-08-07T04:58:28;18.95;;;3.97;;
57241;SDS011;43095;53.302;5.786;2023-08-07T05:00:56;18.10;;;3.83;;
57241;SDS011;43095;53.302;5.786;2023-08-07T05:03:23;24.15;;;4.97;;
57241;SDS011;43095;53.302;5.786;2023-08-07T05:05:51;19.80;;;4.20;;
57241;SDS011;43095;53.302;5.786;2023-08-07T05:08:24;17.92;;;4.35;;
57241;SDS011;43095;53.302;5.786;2023-08-07T05:10:51;21.55;;;4.72;;
57241;SDS011;43095;53.302;5.786;2023-08-07T05:13:18;17.75;;;5.53;;
57241;SDS011;43095;53.302;5.786;2023-08-07T05:15:46;25.48;;;5.57;;
57241;SDS011;43095;53.302;5.786;2023-08-07T05:18:14;20.75;;;5.55;;
57241;SDS011;43095;53.302;5.786;2023-08-07T05:20:42;30.25;;;5.43;;
57241;SDS011;43095;53.302;5.786;2023-08-07T05:23:08;24.02;;;6.32;;
57241;SDS011;43095;53.302;5.786;2023-08-07T05:25:37;17.77;;;4.20;;
57241;SDS011;43095;53.302;5.786;2023-08-07T05:28:04;16.38;;;4.30;;
57241;SDS011;43095;53.302;5.786;2023-08-07T05:30:31;19.30;;;5.35;;
57241;SDS011;43095;53.302;5.786;2023-08-07T05:32:59;22.63;;;4.30;;
57241;SDS011;43095;53.302;5.786;2023-08-07T05:35:26;9.77;;;3.38;;
57241;SDS011;43095;53.302;5.786;2023-08-07T05:37:53;16.60;;;3.42;;
57241;SDS011;43095;53.302;5.786;2023-08-07T05:40:20;23.17;;;4.18;;
57241;SDS011;43095;53.302;5.786;2023-08-07T05:42:46;10.27;;;3.35;;
57241;SDS011;43095;53.302;5.786;2023-08-07T05:45:16;16.35;;;4.05;;
57241;SDS011;43095;53.302;5.786;2023-08-07T05:47:43;13.05;;;2.97;;
57241;SDS011;43095;53.302;5.786;2023-08-07T05:50:10;10.90;;;3.00;;
57241;SDS011;43095;53.302;5.786;2023-08-07T05:52:37;14.80;;;3.65;;
57241;SDS011;43095;53.302;5.786;2023-08-07T05:55:05;12.50;;;3.42;;
57241;SDS011;43095;53.302;5.786;2023-08-07T05:57:33;8.13;;;2.90;;
57241;SDS011;43095;53.302;5.786;2023-08-07T06:00:00;11.40;;;2.63;;
57241;SDS011;43095;53.302;5.786;2023-08-07T06:02:37;18.40;;;3.05;;
57241;SDS011;43095;53.302;5.786;2023-08-07T06:05:04;9.88;;;2.53;;
57241;SDS011;43095;53.302;5.786;2023-08-07T06:07:31;11.55;;;3.15;;
57241;SDS011;43095;53.302;5.786;2023-08-07T06:09:58;13.15;;;3.00;;
57241;SDS011;43095;53.302;5.786;2023-08-07T06:12:24;11.25;;;2.80;;
57241;SDS011;43095;53.302;5.786;2023-08-07T06:14:51;18.90;;;3.65;;
57241;SDS011;43095;53.302;5.786;2023-08-07T06:17:18;14.88;;;3.03;;
57241;SDS011;43095;53.302;5.786;2023-08-07T06:19:45;15.82;;;2.70;;
57241;SDS011;43095;53.302;5.786;2023-08-07T06:22:12;10.38;;;3.05;;
57241;SDS011;43095;53.302;5.786;2023-08-07T06:24:38;7.18;;;2.42;;
57241;SDS011;43095;53.302;5.786;2023-08-07T06:27:05;11.82;;;2.63;;
57241;SDS011;43095;53.302;5.786;2023-08-07T06:29:32;13.60;;;3.13;;
57241;SDS011;43095;53.302;5.786;2023-08-07T06:32:00;15.30;;;3.10;;
57241;SDS011;43095;53.302;5.786;2023-08-07T06:34:30;16.05;;;3.22;;
57241;SDS011;43095;53.302;5.786;2023-08-07T06:36:57;14.48;;;3.40;;
57241;SDS011;43095;53.302;5.786;2023-08-07T06:39:24;15.38;;;4.05;;
57241;SDS011;43095;53.302;5.786;2023-08-07T06:41:50;18.98;;;4.40;;
57241;SDS011;43095;53.302;5.786;2023-08-07T06:44:23;15.68;;;3.50;;
57241;SDS011;43095;53.302;5.786;2023-08-07T06:46:50;17.20;;;3.75;;
57241;SDS011;43095;53.302;5.786;2023-08-07T06:49:17;14.32;;;3.47;;
57241;SDS011;43095;53.302;5.786;2023-08-07T06:51:43;20.48;;;4.82;;
57241;SDS011;43095;53.302;5.786;2023-08-07T06:54:10;20.08;;;4.60;;
57241;SDS011;43095;53.302;5.786;2023-08-07T06:56:37;17.58;;;4.70;;
57241;SDS011;43095;53.302;5.786;2023-08-07T06:59:07;19.35;;;5.43;;
57241;SDS011;43095;53.302;5.786;2023-08-07T07:01:34;8.55;;;3.20;;
57241;SDS011;43095;53.302;5.786;2023-08-07T07:04:01;8.40;;;2.55;;
57241;SDS011;43095;53.302;5.786;2023-08-07T07:06:28;10.80;;;2.70;;
57241;SDS011;43095;53.302;5.786;2023-08-07T07:08:54;13.13;;;3.10;;
57241;SDS011;43095;53.302;5.786;2023-08-07T07:11:22;13.77;;;2.83;;
57241;SDS011;43095;53.302;5.786;2023-08-07T07:13:51;11.05;;;3.47;;
57241;SDS011;43095;53.302;5.786;2023-08-07T07:16:18;19.48;;;4.20;;
57241;SDS011;43095;53.302;5.786;2023-08-07T07:18:48;14.25;;;3.95;;
57241;SDS011;43095;53.302;5.786;2023-08-07T07:21:18;17.92;;;4.88;;
57241;SDS011;43095;53.302;5.786;2023-08-07T07:23:45;20.30;;;4.63;;
57241;SDS011;43095;53.302;5.786;2023-08-07T07:26:11;17.83;;;5.40;;
57241;SDS011;43095;53.302;5.786;2023-08-07T07:28:38;29.00;;;4.70;;
57241;SDS011;43095;53.302;5.786;2023-08-07T07:31:05;20.67;;;4.05;;
57241;SDS011;43095;53.302;5.786;2023-08-07T07:33:34;15.48;;;3.47;;
57241;SDS011;43095;53.302;5.786;2023-08-07T07:36:05;19.42;;;4.10;;
57241;SDS011;43095;53.302;5.786;2023-08-07T07:38:33;19.13;;;3.65;;
57241;SDS011;43095;53.302;5.786;2023-08-07T07:40:59;17.02;;;3.70;;
57241;SDS011;43095;53.302;5.786;2023-08-07T07:43:26;13.30;;;3.03;;
57241;SDS011;43095;53.302;5.786;2023-08-07T07:45:53;16.60;;;3.88;;
57241;SDS011;43095;53.302;5.786;2023-08-07T07:48:20;12.55;;;3.00;;
57241;SDS011;43095;53.302;5.786;2023-08-07T07:50:49;12.73;;;3.05;;
57241;SDS011;43095;53.302;5.786;2023-08-07T07:53:16;12.68;;;3.20;;
57241;SDS011;43095;53.302;5.786;2023-08-07T07:55:46;11.70;;;2.47;;
57241;SDS011;43095;53.302;5.786;2023-08-07T07:58:14;11.40;;;2.47;;
57241;SDS011;43095;53.302;5.786;2023-08-07T08:00:41;12.35;;;2.88;;
57241;SDS011;43095;53.302;5.786;2023-08-07T08:03:08;7.53;;;2.67;;
57241;SDS011;43095;53.302;5.786;2023-08-07T08:05:36;9.63;;;2.50;;
57241;SDS011;43095;53.302;5.786;2023-08-07T08:08:02;7.28;;;2.28;;
57241;SDS011;43095;53.302;5.786;2023-08-07T08:10:29;13.60;;;2.45;;
57241;SDS011;43095;53.302;5.786;2023-08-07T08:12:56;10.32;;;3.15;;
57241;SDS011;43095;53.302;5.786;2023-08-07T08:15:23;8.73;;;2.72;;
57241;SDS011;43095;53.302;5.786;2023-08-07T08:17:50;9.13;;;2.72;;
57241;SDS011;43095;53.302;5.786;2023-08-07T08:20:17;10.27;;;3.25;;
57241;SDS011;43095;53.302;5.786;2023-08-07T08:22:45;9.65;;;2.50;;
57241;SDS011;43095;53.302;5.786;2023-08-07T08:25:13;9.80;;;2.28;;
57241;SDS011;43095;53.302;5.786;2023-08-07T08:27:40;12.43;;;3.13;;
57241;SDS011;43095;53.302;5.786;2023-08-07T08:30:06;12.25;;;2.97;;
57241;SDS011;43095;53.302;5.786;2023-08-07T08:32:35;7.50;;;2.00;;
57241;SDS011;43095;53.302;5.786;2023-08-07T08:35:02;8.30;;;2.45;;
57241;SDS011;43095;53.302;5.786;2023-08-07T08:37:28;23.58;;;3.53;;
57241;SDS011;43095;53.302;5.786;2023-08-07T08:39:55;13.18;;;3.05;;
57241;SDS011;43095;53.302;5.786;2023-08-07T08:42:22;13.23;;;2.60;;
57241;SDS011;43095;53.302;5.786;2023-08-07T08:44:52;14.23;;;4.20;;
57241;SDS011;43095;53.302;5.786;2023-08-07T08:47:21;12.35;;;2.75;;
57241;SDS011;43095;53.302;5.786;2023-08-07T08:49:51;12.82;;;3.10;;
57241;SDS011;43095;53.302;5.786;2023-08-07T08:52:31;10.23;;;2.70;;
57241;SDS011;43095;53.302;5.786;2023-08-07T08:54:59;22.23;;;3.20;;
57241;SDS011;43095;53.302;5.786;2023-08-07T08:57:26;12.63;;;3.67;;
57241;SDS011;43095;53.302;5.786;2023-08-07T08:59:53;10.40;;;2.63;;
57241;SDS011;43095;53.302;5.786;2023-08-07T09:02:20;15.00;;;4.15;;
57241;SDS011;43095;53.302;5.786;2023-08-07T09:04:46;13.73;;;3.25;;
57241;SDS011;43095;53.302;5.786;2023-08-07T09:07:14;10.35;;;3.28;;
57241;SDS011;43095;53.302;5.786;2023-08-07T09:09:43;15.35;;;4.03;;
57241;SDS011;43095;53.302;5.786;2023-08-07T09:12:21;11.77;;;2.67;;
57241;SDS011;43095;53.302;5.786;2023-08-07T09:14:53;13.18;;;2.97;;
57241;SDS011;43095;53.302;5.786;2023-08-07T09:17:28;12.02;;;2.92;;
57241;SDS011;43095;53.302;5.786;2023-08-07T09:19:56;16.75;;;3.42;;
57241;SDS011;43095;53.302;5.786;2023-08-07T09:22:23;12.80;;;3.13;;
57241;SDS011;43095;53.302;5.786;2023-08-07T09:24:50;9.82;;;3.15;;
57241;SDS011;43095;53.302;5.786;2023-08-07T09:27:19;10.32;;;2.83;;
57241;SDS011;43095;53.302;5.786;2023-08-07T09:29:47;9.90;;;2.97;;
57241;SDS011;43095;53.302;5.786;2023-08-07T09:32:14;10.25;;;2.63;;
57241;SDS011;43095;53.302;5.786;2023-08-07T09:34:41;10.75;;;2.83;;
57241;SDS011;43095;53.302;5.786;2023-08-07T09:37:09;11.48;;;2.30;;
57241;SDS011;43095;53.302;5.786;2023-08-07T09:39:36;9.25;;;2.05;;
57241;SDS011;43095;53.302;5.786;2023-08-07T09:42:03;12.15;;;2.35;;
57241;SDS011;43095;53.302;5.786;2023-08-07T09:44:37;10.38;;;2.30;;
57241;SDS011;43095;53.302;5.786;2023-08-07T09:47:14;17.95;;;3.65;;
57241;SDS011;43095;53.302;5.786;2023-08-07T09:49:42;15.82;;;2.88;;
57241;SDS011;43095;53.302;5.786;2023-08-07T09:52:11;14.77;;;3.50;;
57241;SDS011;43095;53.302;5.786;2023-08-07T09:54:42;9.80;;;2.70;;
57241;SDS011;43095;53.302;5.786;2023-08-07T09:57:08;11.18;;;2.70;;
57241;SDS011;43095;53.302;5.786;2023-08-07T09:59:36;12.65;;;2.20;;
57241;SDS011;43095;53.302;5.786;2023-08-07T10:02:06;11.20;;;2.55;;
57241;SDS011;43095;53.302;5.786;2023-08-07T10:04:36;13.48;;;2.75;;
57241;SDS011;43095;53.302;5.786;2023-08-07T10:07:03;9.80;;;2.42;;
57241;SDS011;43095;53.302;5.786;2023-08-07T10:09:30;9.23;;;2.15;;
57241;SDS011;43095;53.302;5.786;2023-08-07T10:12:00;11.77;;;2.90;;
57241;SDS011;43095;53.302;5.786;2023-08-07T10:14:28;13.27;;;2.40;;
57241;SDS011;43095;53.302;5.786;2023-08-07T10:16:55;7.65;;;2.30;;
57241;SDS011;43095;53.302;5.786;2023-08-07T10:19:22;7.57;;;2.00;;
57241;SDS011;43095;53.302;5.786;2023-08-07T10:21:49;12.68;;;3.05;;
57241;SDS011;43095;53.302;5.786;2023-08-07T10:24:17;7.75;;;2.05;;
57241;SDS011;43095;53.302;5.786;2023-08-07T10:26:44;8.23;;;2.03;;
57241;SDS011;43095;53.302;5.786;2023-08-07T10:29:13;8.65;;;2.85;;
57241;SDS011;43095;53.302;5.786;2023-08-07T10:31:43;8.45;;;2.13;;
57241;SDS011;43095;53.302;5.786;2023-08-07T10:34:12;11.05;;;2.58;;
57241;SDS011;43095;53.302;5.786;2023-08-07T10:36:39;11.27;;;2.92;;
57241;SDS011;43095;53.302;5.786;2023-08-07T10:39:07;17.85;;;2.65;;
57241;SDS011;43095;53.302;5.786;2023-08-07T10:41:39;9.23;;;2.22;;
57241;SDS011;43095;53.302;5.786;2023-08-07T10:44:21;6.72;;;2.03;;
57241;SDS011;43095;53.302;5.786;2023-08-07T10:46:49;9.25;;;2.50;;
57241;SDS011;43095;53.302;5.786;2023-08-07T10:49:30;8.80;;;2.45;;
57241;SDS011;43095;53.302;5.786;2023-08-07T10:52:02;8.18;;;2.08;;
57241;SDS011;43095;53.302;5.786;2023-08-07T10:54:39;8.85;;;2.30;;
57241;SDS011;43095;53.302;5.786;2023-08-07T10:57:10;6.97;;;2.17;;
57241;SDS011;43095;53.302;5.786;2023-08-07T10:59:50;10.52;;;2.63;;
57241;SDS011;43095;53.302;5.786;2023-08-07T11:02:24;8.88;;;2.15;;
57241;SDS011;43095;53.302;5.786;2023-08-07T11:04:53;9.27;;;3.20;;
57241;SDS011;43095;53.302;5.786;2023-08-07T11:07:27;12.10;;;2.67;;
57241;SDS011;43095;53.302;5.786;2023-08-07T11:09:55;9.45;;;2.45;;
57241;SDS011;43095;53.302;5.786;2023-08-07T11:12:26;12.95;;;2.80;;
57241;SDS011;43095;53.302;5.786;2023-08-07T11:14:54;16.42;;;3.35;;
57241;SDS011;43095;53.302;5.786;2023-08-07T11:17:25;12.38;;;2.85;;
57241;SDS011;43095;53.302;5.786;2023-08-07T11:19:52;13.10;;;3.08;;
57241;SDS011;43095;53.302;5.786;2023-08-07T11:22:20;10.18;;;2.72;;
57241;SDS011;43095;53.302;5.786;2023-08-07T11:24:47;12.45;;;3.25;;
57241;SDS011;43095;53.302;5.786;2023-08-07T11:27:14;8.32;;;2.47;;
57241;SDS011;43095;53.302;5.786;2023-08-07T11:29:41;8.98;;;2.45;;
57241;SDS011;43095;53.302;5.786;2023-08-07T11:32:10;8.57;;;2.95;;
57241;SDS011;43095;53.302;5.786;2023-08-07T11:34:37;10.02;;;3.15;;
57241;SDS011;43095;53.302;5.786;2023-08-07T11:37:04;6.78;;;2.47;;
57241;SDS011;43095;53.302;5.786;2023-08-07T11:39:31;6.47;;;2.20;;
57241;SDS011;43095;53.302;5.786;2023-08-07T11:41:59;10.18;;;2.88;;
57241;SDS011;43095;53.302;5.786;2023-08-07T11:44:26;10.95;;;3.42;;
57241;SDS011;43095;53.302;5.786;2023-08-07T11:46:55;10.40;;;2.42;;
57241;SDS011;43095;53.302;5.786;2023-08-07T11:49:22;7.80;;;1.80;;
57241;SDS011;43095;53.302;5.786;2023-08-07T11:51:49;9.50;;;1.83;;
57241;SDS011;43095;53.302;5.786;2023-08-07T11:54:16;9.13;;;1.98;;
57241;SDS011;43095;53.302;5.786;2023-08-07T11:56:45;5.38;;;1.58;;
57241;SDS011;43095;53.302;5.786;2023-08-07T11:59:11;6.18;;;1.58;;
57241;SDS011;43095;53.302;5.786;2023-08-07T12:01:38;6.07;;;1.88;;
57241;SDS011;43095;53.302;5.786;2023-08-07T12:06:34;6.68;;;2.33;;
57241;SDS011;43095;53.302;5.786;2023-08-07T12:09:02;8.05;;;2.10;;
57241;SDS011;43095;53.302;5.786;2023-08-07T12:11:29;9.23;;;2.58;;
57241;SDS011;43095;53.302;5.786;2023-08-07T12:13:59;5.18;;;1.80;;
57241;SDS011;43095;53.302;5.786;2023-08-07T12:16:31;10.73;;;2.95;;
57241;SDS011;43095;53.302;5.786;2023-08-07T12:18:59;8.48;;;2.13;;
57241;SDS011;43095;53.302;5.786;2023-08-07T12:21:26;13.55;;;2.97;;
57241;SDS011;43095;53.302;5.786;2023-08-07T12:23:57;12.05;;;3.65;;
57241;SDS011;43095;53.302;5.786;2023-08-07T12:26:24;11.50;;;3.47;;
57241;SDS011;43095;53.302;5.786;2023-08-07T12:28:52;10.43;;;2.13;;
57241;SDS011;43095;53.302;5.786;2023-08-07T12:31:19;12.05;;;3.47;;
57241;SDS011;43095;53.302;5.786;2023-08-07T12:33:46;7.93;;;2.63;;
57241;SDS011;43095;53.302;5.786;2023-08-07T12:36:13;11.35;;;2.72;;
57241;SDS011;43095;53.302;5.786;2023-08-07T12:38:44;11.45;;;3.13;;
57241;SDS011;43095;53.302;5.786;2023-08-07T12:41:12;9.13;;;2.60;;
57241;SDS011;43095;53.302;5.786;2023-08-07T12:43:43;13.20;;;3.30;;
57241;SDS011;43095;53.302;5.786;2023-08-07T12:46:10;13.40;;;3.08;;
57241;SDS011;43095;53.302;5.786;2023-08-07T12:48:39;12.38;;;3.35;;
57241;SDS011;43095;53.302;5.786;2023-08-07T12:51:06;5.78;;;2.40;;
57241;SDS011;43095;53.302;5.786;2023-08-07T12:53:33;9.63;;;2.60;;
57241;SDS011;43095;53.302;5.786;2023-08-07T12:56:00;6.55;;;2.72;;
57241;SDS011;43095;53.302;5.786;2023-08-07T12:58:27;10.93;;;3.00;;
57241;SDS011;43095;53.302;5.786;2023-08-07T13:00:56;10.80;;;2.65;;
57241;SDS011;43095;53.302;5.786;2023-08-07T13:03:23;10.35;;;2.88;;
57241;SDS011;43095;53.302;5.786;2023-08-07T13:05:50;9.45;;;2.60;;
57241;SDS011;43095;53.302;5.786;2023-08-07T13:08:17;13.05;;;2.75;;
57241;SDS011;43095;53.302;5.786;2023-08-07T13:10:43;13.52;;;3.28;;
57241;SDS011;43095;53.302;5.786;2023-08-07T13:13:15;8.88;;;3.10;;
57241;SDS011;43095;53.302;5.786;2023-08-07T13:15:41;8.45;;;2.70;;
57241;SDS011;43095;53.302;5.786;2023-08-07T13:18:08;13.60;;;3.30;;
57241;SDS011;43095;53.302;5.786;2023-08-07T13:20:35;7.22;;;2.30;;
57241;SDS011;43095;53.302;5.786;2023-08-07T13:23:02;7.88;;;2.30;;
57241;SDS011;43095;53.302;5.786;2023-08-07T13:25:31;10.57;;;2.67;;
57241;SDS011;43095;53.302;5.786;2023-08-07T13:27:58;8.30;;;2.55;;
57241;SDS011;43095;53.302;5.786;2023-08-07T13:30:24;17.92;;;3.22;;
57241;SDS011;43095;53.302;5.786;2023-08-07T13:32:51;7.93;;;2.40;;
57241;SDS011;43095;53.302;5.786;2023-08-07T13:35:19;11.00;;;2.92;;
57241;SDS011;43095;53.302;5.786;2023-08-07T13:37:45;8.77;;;2.53;;
57241;SDS011;43095;53.302;5.786;2023-08-07T13:40:12;11.48;;;2.92;;
57241;SDS011;43095;53.302;5.786;2023-08-07T13:42:40;13.65;;;2.33;;
57241;SDS011;43095;53.302;5.786;2023-08-07T13:45:07;9.88;;;2.47;;
57241;SDS011;43095;53.302;5.786;2023-08-07T13:47:36;7.20;;;1.90;;
57241;SDS011;43095;53.302;5.786;2023-08-07T13:50:04;18.75;;;3.67;;
57241;SDS011;43095;53.302;5.786;2023-08-07T13:52:31;8.27;;;3.00;;
57241;SDS011;43095;53.302;5.786;2023-08-07T13:54:58;8.73;;;2.25;;
57241;SDS011;43095;53.302;5.786;2023-08-07T13:57:25;6.15;;;2.13;;
57241;SDS011;43095;53.302;5.786;2023-08-07T13:59:51;12.20;;;2.60;;
57241;SDS011;43095;53.302;5.786;2023-08-07T14:02:20;7.75;;;1.85;;
57241;SDS011;43095;53.302;5.786;2023-08-07T14:04:47;7.80;;;1.88;;
57241;SDS011;43095;53.302;5.786;2023-08-07T14:07:14;5.43;;;1.98;;
57241;SDS011;43095;53.302;5.786;2023-08-07T14:09:41;8.85;;;2.22;;
57241;SDS011;43095;53.302;5.786;2023-08-07T14:12:07;9.00;;;2.70;;
57241;SDS011;43095;53.302;5.786;2023-08-07T14:14:34;7.10;;;2.20;;
57241;SDS011;43095;53.302;5.786;2023-08-07T14:17:01;6.13;;;2.20;;
57241;SDS011;43095;53.302;5.786;2023-08-07T14:19:28;10.13;;;2.13;;
57241;SDS011;43095;53.302;5.786;2023-08-07T14:21:55;9.27;;;2.20;;
57241;SDS011;43095;53.302;5.786;2023-08-07T14:24:22;9.73;;;2.03;;
57241;SDS011;43095;53.302;5.786;2023-08-07T14:26:49;9.43;;;2.22;;
57241;SDS011;43095;53.302;5.786;2023-08-07T14:29:22;6.70;;;2.08;;
57241;SDS011;43095;53.302;5.786;2023-08-07T14:31:50;12.82;;;2.30;;
57241;SDS011;43095;53.302;5.786;2023-08-07T14:34:17;3.83;;;1.67;;
57241;SDS011;43095;53.302;5.786;2023-08-07T14:36:44;7.85;;;2.20;;
57241;SDS011;43095;53.302;5.786;2023-08-07T14:39:11;9.07;;;1.95;;
57241;SDS011;43095;53.302;5.786;2023-08-07T14:41:37;9.48;;;2.50;;
57241;SDS011;43095;53.302;5.786;2023-08-07T14:44:07;5.50;;;1.50;;
57241;SDS011;43095;53.302;5.786;2023-08-07T14:46:34;6.88;;;1.90;;
57241;SDS011;43095;53.302;5.786;2023-08-07T14:49:01;10.35;;;2.35;;